Time;durP1;ratioP1;P1;durP2;ratioP2;P2;SDS_P1;SDS_P2;PMS_P1;PMS_P2;Temp;Humidity;BMP_temperature;BMP_pressure;BME280_temperature;BME280_humidity;BME280_pressure;Samples;Min_cycle;Max_cycle;Signal;HPM_P1;HPM_P2
2022/02/14 00:00:45;;;;;;;25.03;12.83;;;-1.00;94.80;;;;;;5020582;28;20559;-58
2022/02/14 00:03:11;;;;;;;22.77;13.00;;;-1.10;94.60;;;;;;5023447;28;20276;-59
2022/02/14 00:05:36;;;;;;;23.90;13.80;;;-1.10;94.30;;;;;;5023038;28;20532;-56
2022/02/14 00:08:02;;;;;;;18.50;11.27;;;-1.10;94.70;;;;;;5021804;28;20181;-57
2022/02/14 00:10:28;;;;;;;28.80;11.97;;;-1.20;95.20;;;;;;5022706;28;20181;-56
2022/02/14 00:12:54;;;;;;;23.17;12.57;;;-1.20;95.90;;;;;;5024089;28;20504;-57
2022/02/14 00:15:19;;;;;;;20.23;11.70;;;-1.30;95.80;;;;;;5023586;28;20193;-55
2022/02/14 00:17:45;;;;;;;22.83;12.37;;;-1.30;96.40;;;;;;5022191;28;20268;-57
2022/02/14 00:20:11;;;;;;;25.97;12.43;;;-1.30;96.50;;;;;;5022455;28;20210;-58
2022/02/14 00:22:38;;;;;;;28.33;12.83;;;-1.30;96.90;;;;;;5021598;28;20185;-57
2022/02/14 00:25:05;;;;;;;21.10;11.73;;;-1.30;97.20;;;;;;5019164;28;20471;-59
2022/02/14 00:27:31;;;;;;;20.20;12.00;;;-1.30;97.20;;;;;;5021816;28;20444;-58
2022/02/14 00:29:56;;;;;;;22.17;12.20;;;-1.30;97.30;;;;;;5017963;28;20480;-57
2022/02/14 00:32:23;;;;;;;18.90;11.53;;;-1.30;96.50;;;;;;5020953;28;20431;-57
2022/02/14 00:34:50;;;;;;;21.10;10.70;;;-1.30;97.00;;;;;;5019899;28;20260;-57
2022/02/14 00:37:16;;;;;;;28.83;10.10;;;-1.30;97.40;;;;;;5017539;28;20547;-56
2022/02/14 00:39:42;;;;;;;22.13;11.03;;;-1.30;97.90;;;;;;5018000;28;21042;-57
2022/02/14 00:42:08;;;;;;;19.70;11.43;;;-1.30;98.10;;;;;;5018909;28;20523;-57
2022/02/14 00:44:34;;;;;;;21.67;12.10;;;-1.30;98.30;;;;;;5019378;28;20542;-58
2022/02/14 00:47:00;;;;;;;18.73;10.77;;;-1.30;98.20;;;;;;5023039;28;20179;-58
2022/02/14 00:49:25;;;;;;;20.33;11.83;;;-1.30;98.40;;;;;;5019682;28;20423;-57
2022/02/14 00:51:51;;;;;;;21.80;12.33;;;-1.30;98.20;;;;;;5019480;28;20176;-57
2022/02/14 00:54:17;;;;;;;19.73;12.13;;;-1.30;98.10;;;;;;5018315;28;20236;-57
2022/02/14 00:56:42;;;;;;;25.87;10.77;;;-1.30;97.00;;;;;;5020702;28;20182;-57
2022/02/14 00:59:08;;;;;;;22.13;10.17;;;-1.40;96.30;;;;;;5018400;28;20211;-58
2022/02/14 01:01:33;;;;;;;22.20;11.37;;;-1.40;96.20;;;;;;5017467;28;20173;-58
2022/02/14 01:03:59;;;;;;;17.70;10.53;;;-1.40;96.00;;;;;;5023158;28;20266;-57
2022/02/14 01:06:28;;;;;;;20.00;10.57;;;-1.40;96.00;;;;;;5020900;28;20554;-58
2022/02/14 01:08:54;;;;;;;23.73;10.37;;;-1.40;95.80;;;;;;5019335;28;20200;-59
2022/02/14 01:11:20;;;;;;;18.97;10.13;;;-1.40;96.10;;;;;;5019471;28;20944;-55
2022/02/14 01:13:46;;;;;;;19.23;10.30;;;-1.50;96.00;;;;;;5019065;28;20446;-56
2022/02/14 01:16:12;;;;;;;23.57;10.57;;;-1.50;96.40;;;;;;5019716;28;20463;-55
2022/02/14 01:18:38;;;;;;;17.57;9.70;;;-1.50;96.60;;;;;;5021879;28;20179;-57
2022/02/14 01:21:03;;;;;;;14.77;9.30;;;-1.50;96.40;;;;;;5020181;28;20214;-56
2022/02/14 01:23:29;;;;;;;13.30;8.83;;;-1.50;96.30;;;;;;5021021;28;20661;-57
2022/02/14 01:25:55;;;;;;;17.40;8.83;;;-1.50;95.80;;;;;;5020169;28;20208;-56
2022/02/14 01:28:20;;;;;;;16.13;10.00;;;-1.50;95.90;;;;;;5020608;28;21013;-56
2022/02/14 01:30:47;;;;;;;23.07;10.43;;;-1.50;96.40;;;;;;5019110;28;20186;-58
2022/02/14 01:33:13;;;;;;;21.80;10.60;;;-1.50;97.20;;;;;;5021044;28;20660;-57
2022/02/14 01:35:39;;;;;;;17.93;10.20;;;-1.60;97.60;;;;;;5016608;28;20459;-58
2022/02/14 01:38:05;;;;;;;28.83;10.10;;;-1.60;98.00;;;;;;5017300;28;20804;-59
2022/02/14 01:40:32;;;;;;;15.40;9.77;;;-1.60;98.20;;;;;;5020578;28;20460;-57
2022/02/14 01:42:58;;;;;;;22.07;9.50;;;-1.60;98.30;;;;;;5018228;28;20443;-58
2022/02/14 01:45:24;;;;;;;18.93;10.50;;;-1.70;98.70;;;;;;5016918;28;21277;-57
2022/02/14 01:47:49;;;;;;;16.57;9.13;;;-1.70;98.90;;;;;;5019580;28;20547;-57
2022/02/14 01:50:15;;;;;;;15.17;8.50;;;-1.70;98.80;;;;;;5020225;28;20458;-58
2022/02/14 01:52:42;;;;;;;18.00;8.93;;;-1.70;98.90;;;;;;5024099;28;20250;-58
2022/02/14 01:55:10;;;;;;;15.60;9.70;;;-1.70;99.10;;;;;;5025534;28;20455;-58
2022/02/14 01:57:36;;;;;;;17.00;9.60;;;-1.70;99.30;;;;;;5025156;28;20440;-58
2022/02/14 02:00:11;;;;;;;15.83;9.10;;;-1.80;99.70;;;;;;5023754;28;20485;-55
2022/02/14 02:02:37;;;;;;;14.83;9.40;;;-1.80;99.80;;;;;;5025397;28;20439;-55
2022/02/14 02:05:04;;;;;;;16.90;9.40;;;-1.80;99.90;;;;;;5021170;28;20460;-58
2022/02/14 02:07:29;;;;;;;14.77;8.47;;;-1.80;99.90;;;;;;5021162;28;20437;-56
2022/02/14 02:09:55;;;;;;;12.03;8.60;;;-1.80;99.90;;;;;;5022988;28;20489;-58
2022/02/14 02:12:23;;;;;;;15.80;8.37;;;-1.80;99.90;;;;;;5026359;28;20201;-58
2022/02/14 02:15:00;;;;;;;16.63;8.60;;;-1.80;99.90;;;;;;5023471;28;20571;-59
2022/02/14 02:17:45;;;;;;;11.10;7.63;;;-1.90;99.90;;;;;;5022192;28;20523;-57
2022/02/14 02:20:13;;;;;;;13.50;8.37;;;-1.90;99.90;;;;;;5021716;28;21566;-57
2022/02/14 02:22:40;;;;;;;16.23;9.07;;;-1.90;99.90;;;;;;5021877;28;20436;-57
2022/02/14 02:25:06;;;;;;;16.50;8.63;;;-1.90;99.90;;;;;;5024037;28;20478;-57
2022/02/14 02:27:32;;;;;;;14.17;8.67;;;-1.90;99.90;;;;;;5042461;22;20419;-57
2022/02/14 02:30:00;;;;;;;18.20;9.40;;;-1.90;99.90;;;;;;4997418;28;20452;-57
2022/02/14 02:32:28;;;;;;;14.80;8.93;;;-1.90;99.90;;;;;;4996840;28;20173;-58
2022/02/14 02:34:54;;;;;;;11.67;8.40;;;-1.90;99.90;;;;;;4998557;28;20445;-56
2022/02/14 02:37:20;;;;;;;14.70;8.73;;;-1.90;99.90;;;;;;5000922;28;21041;-54
2022/02/14 02:39:46;;;;;;;13.80;8.43;;;-1.90;99.90;;;;;;4983190;28;21390;-56
2022/02/14 02:42:15;;;;;;;17.87;9.30;;;-2.00;99.90;;;;;;4986107;28;20441;-56
2022/02/14 02:44:42;;;;;;;15.43;9.23;;;-2.00;99.90;;;;;;4983837;28;20425;-59
2022/02/14 02:47:10;;;;;;;21.43;7.33;;;-2.00;99.90;;;;;;4984612;28;20436;-59
2022/02/14 02:49:36;;;;;;;15.87;8.70;;;-2.00;99.90;;;;;;4983894;28;20459;-57
2022/02/14 02:52:04;;;;;;;18.50;8.30;;;-2.00;99.90;;;;;;4981600;28;20430;-57
2022/02/14 02:54:30;;;;;;;15.00;8.77;;;-2.00;99.90;;;;;;4986482;28;20441;-56
2022/02/14 02:56:56;;;;;;;10.60;7.30;;;-2.00;99.90;;;;;;4985638;28;20445;-58
2022/02/14 02:59:23;;;;;;;14.57;8.57;;;-2.00;99.90;;;;;;5033096;28;20256;-60
2022/02/14 03:01:49;;;;;;;13.70;8.00;;;-2.00;99.90;;;;;;5006625;28;20540;-60
2022/02/14 03:04:16;;;;;;;10.60;7.93;;;-2.00;99.90;;;;;;5007311;28;20436;-59
2022/02/14 03:06:42;;;;;;;12.63;7.23;;;-2.00;99.90;;;;;;5005999;28;20519;-58
2022/02/14 03:09:08;;;;;;;14.03;8.37;;;-2.00;99.90;;;;;;4988654;28;20490;-54
2022/02/14 03:11:36;;;;;;;12.93;8.37;;;-2.00;99.90;;;;;;4985380;28;20516;-55
2022/02/14 03:14:02;;;;;;;22.23;9.10;;;-2.00;99.90;;;;;;4983541;28;20433;-57
2022/02/14 03:16:28;;;;;;;18.30;8.60;;;-2.00;99.90;;;;;;5002854;28;20496;-59
2022/02/14 03:18:54;;;;;;;15.00;9.37;;;-2.00;99.90;;;;;;5002824;28;20562;-53
2022/02/14 03:21:20;;;;;;;14.27;8.03;;;-2.00;99.90;;;;;;5009346;28;20250;-56
2022/02/14 03:23:50;;;;;;;19.80;8.40;;;-2.10;99.90;;;;;;5009754;28;20286;-55
2022/02/14 03:26:17;;;;;;;13.00;8.13;;;-2.10;99.90;;;;;;4999961;28;20174;-56
2022/02/14 03:28:44;;;;;;;12.73;8.60;;;-2.10;99.90;;;;;;4991156;28;20471;-57
2022/02/14 03:31:10;;;;;;;13.03;8.17;;;-2.20;99.90;;;;;;4991481;28;20461;-55
2022/02/14 03:33:35;;;;;;;16.27;8.70;;;-2.20;99.90;;;;;;4992822;28;20462;-55
2022/02/14 03:36:01;;;;;;;13.43;8.53;;;-2.20;99.90;;;;;;4993197;28;20437;-55
2022/02/14 03:38:27;;;;;;;20.53;8.30;;;-2.30;99.90;;;;;;4989437;28;20222;-53
2022/02/14 03:40:52;;;;;;;16.60;8.87;;;-2.30;99.90;;;;;;4988760;28;20210;-55
2022/02/14 03:43:18;;;;;;;16.00;9.00;;;-2.20;99.90;;;;;;4992105;28;20506;-54
2022/02/14 03:45:44;;;;;;;18.63;9.27;;;-2.30;99.90;;;;;;4991580;28;20180;-56
2022/02/14 03:48:10;;;;;;;14.60;8.40;;;-2.30;99.90;;;;;;4992058;28;20193;-52
2022/02/14 03:50:36;;;;;;;13.30;9.03;;;-2.30;99.90;;;;;;4991307;28;20425;-57
2022/02/14 03:53:03;;;;;;;13.87;8.20;;;-2.30;99.90;;;;;;5003218;28;21266;-56
2022/02/14 03:55:28;;;;;;;17.87;8.97;;;-2.40;99.90;;;;;;4993428;28;20431;-56
2022/02/14 03:57:54;;;;;;;18.30;8.90;;;-2.30;99.90;;;;;;4981680;28;21194;-54
2022/02/14 04:00:23;;;;;;;14.60;8.73;;;-2.40;99.90;;;;;;4984805;28;20291;-55
2022/02/14 04:02:49;;;;;;;16.77;8.60;;;-2.30;99.90;;;;;;4990249;28;20234;-56
2022/02/14 04:05:17;;;;;;;16.77;8.17;;;-2.30;99.90;;;;;;4977707;28;20422;-54
2022/02/14 04:07:43;;;;;;;10.40;8.27;;;-2.30;99.90;;;;;;4982466;28;20442;-55
2022/02/14 04:10:12;;;;;;;16.57;8.40;;;-2.30;99.90;;;;;;4988332;28;20878;-55
2022/02/14 04:12:38;;;;;;;12.40;7.23;;;-2.30;99.90;;;;;;4989662;28;20626;-53
2022/02/14 04:15:06;;;;;;;15.27;8.67;;;-2.30;99.90;;;;;;4991276;28;20517;-57
2022/02/14 04:17:32;;;;;;;15.73;8.53;;;-2.30;99.90;;;;;;4991184;28;20432;-56
2022/02/14 04:19:58;;;;;;;13.70;8.00;;;-2.30;99.90;;;;;;4984308;28;20465;-55
2022/02/14 04:22:23;;;;;;;12.87;7.83;;;-2.40;99.90;;;;;;4981067;28;20433;-56
2022/02/14 04:24:50;;;;;;;13.50;8.73;;;-2.40;99.90;;;;;;4985439;28;20595;-54
2022/02/14 04:27:15;;;;;;;17.53;10.20;;;-2.40;99.90;;;;;;4986388;28;20173;-57
2022/02/14 04:29:41;;;;;;;18.80;11.20;;;-2.40;99.90;;;;;;4971891;28;20527;-56
2022/02/14 04:32:07;;;;;;;15.77;8.40;;;-2.40;99.90;;;;;;4980266;28;20258;-53
2022/02/14 04:34:33;;;;;;;16.03;9.23;;;-2.40;99.90;;;;;;4993449;28;20189;-56
2022/02/14 04:37:00;;;;;;;14.80;8.30;;;-2.40;99.90;;;;;;5003109;28;20477;-57
2022/02/14 04:39:25;;;;;;;15.40;9.07;;;-2.50;99.90;;;;;;4997916;28;20596;-57
2022/02/14 04:41:52;;;;;;;14.30;7.80;;;-2.50;99.90;;;;;;5005979;28;20431;-57
2022/02/14 04:44:17;;;;;;;13.97;7.40;;;-2.50;99.90;;;;;;5016865;28;20631;-59
2022/02/14 04:46:43;;;;;;;13.60;8.10;;;-2.50;99.90;;;;;;5005484;28;20480;-58
2022/02/14 04:49:09;;;;;;;15.43;8.13;;;-2.60;99.90;;;;;;4997287;28;20202;-61
2022/02/14 04:51:35;;;;;;;12.17;8.60;;;-2.50;99.90;;;;;;5011430;28;20460;-58
2022/02/14 04:54:02;;;;;;;16.27;9.20;;;-2.50;99.90;;;;;;5012249;28;20241;-59
2022/02/14 04:56:28;;;;;;;17.10;8.40;;;-2.50;99.90;;;;;;5017165;28;20449;-58
2022/02/14 04:58:54;;;;;;;14.80;8.17;;;-2.50;99.90;;;;;;5016357;28;20507;-58
2022/02/14 05:01:20;;;;;;;16.47;8.43;;;-2.50;99.90;;;;;;4998562;28;20603;-56
2022/02/14 05:03:46;;;;;;;14.37;8.03;;;-2.50;99.90;;;;;;5003987;28;20166;-57
2022/02/14 05:06:11;;;;;;;17.20;8.30;;;-2.50;99.90;;;;;;4999554;28;20615;-58
2022/02/14 05:08:39;;;;;;;22.37;8.13;;;-2.60;99.90;;;;;;5012604;28;20270;-58
2022/02/14 05:11:04;;;;;;;17.60;9.63;;;-2.60;99.90;;;;;;4998381;28;20171;-59
2022/02/14 05:13:30;;;;;;;17.27;8.20;;;-2.50;99.90;;;;;;5006548;28;20554;-60
2022/02/14 05:15:56;;;;;;;15.87;9.17;;;-2.60;99.90;;;;;;4982637;28;20190;-54
2022/02/14 05:18:22;;;;;;;13.60;8.93;;;-2.60;99.90;;;;;;5004566;28;20458;-59
2022/02/14 05:20:47;;;;;;;18.87;9.53;;;-2.60;99.90;;;;;;4986306;28;20225;-57
2022/02/14 05:23:13;;;;;;;16.57;9.97;;;-2.60;99.90;;;;;;4978359;28;20526;-56
2022/02/14 05:25:39;;;;;;;17.37;9.53;;;-2.60;99.90;;;;;;4988468;28;20180;-56
2022/02/14 05:28:09;;;;;;;14.60;9.47;;;-2.50;99.90;;;;;;4985954;28;20536;-55
2022/02/14 05:30:35;;;;;;;20.30;9.80;;;-2.50;99.90;;;;;;4981470;28;20429;-55
2022/02/14 05:33:01;;;;;;;14.17;9.00;;;-2.50;99.90;;;;;;4988583;28;20437;-56
2022/02/14 05:35:27;;;;;;;20.13;9.83;;;-2.50;99.90;;;;;;4979875;28;20449;-55
2022/02/14 05:37:53;;;;;;;14.30;8.47;;;-2.50;99.90;;;;;;4977243;28;20465;-55
2022/02/14 05:40:19;;;;;;;20.70;9.20;;;-2.50;99.90;;;;;;4977288;28;20532;-57
2022/02/14 05:42:46;;;;;;;16.13;8.10;;;-2.50;99.90;;;;;;4980310;28;20191;-56
2022/02/14 05:45:11;;;;;;;12.57;7.93;;;-2.50;99.90;;;;;;4982556;28;20434;-54
2022/02/14 05:47:37;;;;;;;16.47;8.23;;;-2.50;99.90;;;;;;4973440;28;20489;-56
2022/02/14 05:50:05;;;;;;;15.97;8.43;;;-2.50;99.90;;;;;;4974649;28;20185;-55
2022/02/14 05:52:30;;;;;;;23.43;10.80;;;-2.50;99.90;;;;;;4976668;28;20187;-55
2022/02/14 05:54:56;;;;;;;17.37;9.10;;;-2.50;99.90;;;;;;4974582;28;20942;-55
2022/02/14 05:57:22;;;;;;;14.13;9.30;;;-2.50;99.90;;;;;;4981725;28;20453;-56
2022/02/14 05:59:48;;;;;;;14.77;8.50;;;-2.50;99.90;;;;;;4976727;28;20258;-54
2022/02/14 06:02:14;;;;;;;18.73;9.93;;;-2.50;99.90;;;;;;4987659;28;20427;-54
2022/02/14 06:04:40;;;;;;;18.70;9.43;;;-2.50;99.90;;;;;;4982221;28;20301;-54
2022/02/14 06:07:06;;;;;;;17.60;8.93;;;-2.50;99.90;;;;;;4971375;28;20620;-55
2022/02/14 06:09:32;;;;;;;19.73;10.10;;;-2.50;99.90;;;;;;4983368;28;20450;-56
2022/02/14 06:11:58;;;;;;;16.97;10.57;;;-2.50;99.90;;;;;;4972707;28;20480;-55
2022/02/14 06:14:24;;;;;;;18.30;10.57;;;-2.50;99.90;;;;;;4985687;28;20503;-58
2022/02/14 06:16:51;;;;;;;18.63;9.70;;;-2.50;99.90;;;;;;4988897;28;20196;-55
2022/02/14 06:19:17;;;;;;;18.73;9.90;;;-2.60;99.90;;;;;;4974867;28;20465;-55
2022/02/14 06:21:42;;;;;;;18.13;9.93;;;-2.50;99.90;;;;;;5001843;28;20793;-54
2022/02/14 06:24:08;;;;;;;24.17;9.03;;;-2.60;99.90;;;;;;4996198;28;20437;-55
2022/02/14 06:26:34;;;;;;;19.77;8.97;;;-2.50;99.90;;;;;;4991533;28;20625;-54
2022/02/14 06:29:00;;;;;;;16.87;9.80;;;-2.60;99.90;;;;;;4986741;28;20217;-55
2022/02/14 06:31:26;;;;;;;25.53;10.27;;;-2.60;99.90;;;;;;4989273;28;20601;-55
2022/02/14 06:33:52;;;;;;;18.37;9.60;;;-2.60;99.90;;;;;;4982907;28;20494;-55
2022/02/14 06:36:19;;;;;;;21.20;9.40;;;-2.50;99.90;;;;;;4988029;28;20274;-54
2022/02/14 06:38:45;;;;;;;19.47;10.00;;;-2.50;99.90;;;;;;4984687;28;20439;-56
2022/02/14 06:41:11;;;;;;;21.63;10.17;;;-2.50;99.90;;;;;;4998806;28;20756;-56
2022/02/14 06:43:37;;;;;;;20.13;8.90;;;-2.50;99.90;;;;;;5003787;28;20414;-55
2022/02/14 06:46:03;;;;;;;20.23;10.03;;;-2.50;99.90;;;;;;4974510;28;20485;-55
2022/02/14 06:48:28;;;;;;;20.67;10.47;;;-2.60;99.90;;;;;;4985103;28;20494;-56
2022/02/14 06:50:55;;;;;;;16.73;9.20;;;-2.60;99.90;;;;;;4990827;28;20584;-56
2022/02/14 06:53:21;;;;;;;20.80;10.60;;;-2.60;99.90;;;;;;4983347;28;20205;-55
2022/02/14 06:55:46;;;;;;;19.80;10.50;;;-2.60;99.90;;;;;;4988001;28;20972;-55
2022/02/14 06:58:12;;;;;;;15.10;9.97;;;-2.60;99.90;;;;;;4985966;28;20202;-55
2022/02/14 07:00:38;;;;;;;22.53;13.63;;;-2.60;99.90;;;;;;4993997;28;20265;-55
2022/02/14 07:03:03;;;;;;;26.47;13.63;;;-2.60;99.90;;;;;;4981018;28;20256;-56
2022/02/14 07:05:29;;;;;;;27.23;11.30;;;-2.60;99.90;;;;;;4976507;28;20723;-55
2022/02/14 07:07:55;;;;;;;24.93;11.53;;;-2.60;99.90;;;;;;4981638;28;20546;-56
2022/02/14 07:10:20;;;;;;;25.73;14.30;;;-2.50;99.90;;;;;;4980435;28;20710;-56
2022/02/14 07:12:46;;;;;;;18.73;11.53;;;-2.50;99.90;;;;;;4987690;28;20245;-55
2022/02/14 07:15:13;;;;;;;22.67;10.50;;;-2.40;99.90;;;;;;4978245;28;20301;-57
2022/02/14 07:17:41;;;;;;;17.10;10.63;;;-2.40;99.90;;;;;;4989463;28;20956;-56
2022/02/14 07:20:07;;;;;;;17.00;10.00;;;-2.30;99.90;;;;;;4970869;28;20497;-56
2022/02/14 07:22:33;;;;;;;21.43;10.43;;;-2.30;99.90;;;;;;4990305;28;20966;-56
2022/02/14 07:24:58;;;;;;;19.07;10.23;;;-2.30;99.90;;;;;;4986324;28;20528;-54
2022/02/14 07:27:24;;;;;;;21.37;10.97;;;-2.20;99.90;;;;;;4974835;28;20180;-55
2022/02/14 07:29:49;;;;;;;23.20;11.50;;;-2.20;99.90;;;;;;4975863;28;20369;-57
2022/02/14 07:32:15;;;;;;;20.63;12.10;;;-2.20;99.90;;;;;;5008808;28;20207;-56
2022/02/14 07:34:41;;;;;;;25.53;11.60;;;-2.20;99.90;;;;;;4998807;28;20304;-55
2022/02/14 07:37:07;;;;;;;23.97;12.43;;;-2.20;99.90;;;;;;4987958;28;20186;-57
2022/02/14 07:39:33;;;;;;;19.80;10.17;;;-2.20;99.90;;;;;;4983354;28;20299;-56
2022/02/14 07:42:00;;;;;;;20.17;10.70;;;-2.10;99.90;;;;;;4980697;28;20216;-57
2022/02/14 07:44:26;;;;;;;18.60;10.47;;;-2.10;99.90;;;;;;4985893;28;20430;-56
2022/02/14 07:46:53;;;;;;;16.03;9.13;;;-2.00;99.90;;;;;;4986407;28;20569;-55
2022/02/14 07:49:22;;;;;;;18.47;9.97;;;-1.90;99.90;;;;;;4985721;28;20543;-55
2022/02/14 07:51:48;;;;;;;17.50;10.07;;;-1.90;99.90;;;;;;4990687;28;20778;-56
2022/02/14 07:54:14;;;;;;;20.57;10.30;;;-1.80;99.90;;;;;;4981975;28;21735;-56
2022/02/14 07:56:41;;;;;;;20.37;10.43;;;-1.70;99.90;;;;;;4981830;28;20501;-56
2022/02/14 07:59:08;;;;;;;16.90;10.00;;;-1.60;99.90;;;;;;4986386;28;20462;-55
2022/02/14 08:01:34;;;;;;;14.07;10.10;;;-1.60;99.90;;;;;;4991572;28;21173;-55
2022/02/14 08:04:00;;;;;;;12.70;8.57;;;-1.60;99.90;;;;;;4996267;28;20522;-54
2022/02/14 08:06:26;;;;;;;17.23;9.70;;;-1.50;99.90;;;;;;4983995;28;20899;-53
2022/02/14 08:08:52;;;;;;;12.77;9.40;;;-1.50;99.90;;;;;;4990248;28;20658;-54
2022/02/14 08:11:19;;;;;;;15.97;9.30;;;-1.50;99.90;;;;;;4978185;28;20440;-55
2022/02/14 08:13:45;;;;;;;16.13;9.00;;;-1.40;99.90;;;;;;4979321;28;20823;-55
2022/02/14 08:16:11;;;;;;;20.03;9.10;;;-1.30;99.90;;;;;;4984257;28;20424;-55
2022/02/14 08:18:37;;;;;;;12.67;8.30;;;-1.20;99.90;;;;;;4977641;28;20545;-55
2022/02/14 08:21:03;;;;;;;15.40;9.10;;;-1.00;99.90;;;;;;4992382;28;20204;-55
2022/02/14 08:23:30;;;;;;;23.90;10.47;;;-1.00;99.90;;;;;;4984175;28;20182;-55
2022/02/14 08:25:56;;;;;;;14.23;8.57;;;-0.90;99.90;;;;;;5001969;28;20433;-55
2022/02/14 08:28:22;;;;;;;16.27;8.93;;;-0.80;99.90;;;;;;4986692;28;20523;-57
2022/02/14 08:30:48;;;;;;;11.43;8.23;;;-0.80;99.90;;;;;;5016794;23;20500;-58
2022/02/14 08:33:14;;;;;;;19.23;9.20;;;-0.70;99.90;;;;;;5025607;28;20171;-59
2022/02/14 08:35:40;;;;;;;14.13;8.03;;;-0.70;99.90;;;;;;5026900;28;20411;-59
2022/02/14 08:38:06;;;;;;;14.07;8.43;;;-0.70;99.90;;;;;;5025086;28;20412;-55
2022/02/14 08:40:32;;;;;;;12.70;8.43;;;-0.70;99.90;;;;;;5027701;28;20473;-58
2022/02/14 08:43:00;;;;;;;14.97;8.10;;;-0.60;99.90;;;;;;5024220;28;20424;-58
2022/02/14 08:45:29;;;;;;;14.03;8.80;;;-0.50;99.90;;;;;;5026728;28;20171;-55
2022/02/14 08:47:55;;;;;;;15.53;9.57;;;-0.40;99.90;;;;;;5010747;28;20921;-58
2022/02/14 08:50:20;;;;;;;18.00;9.40;;;-0.30;99.90;;;;;;5016665;28;20439;-56
2022/02/14 08:52:47;;;;;;;19.07;10.53;;;-0.20;99.90;;;;;;5018713;28;20174;-58
2022/02/14 08:55:15;;;;;;;15.57;9.60;;;-0.10;99.70;;;;;;5031130;28;20306;-59
2022/02/14 08:57:42;;;;;;;16.90;9.83;;;0.00;98.80;;;;;;5014701;28;20529;-58
2022/02/14 09:00:08;;;;;;;17.63;9.60;;;0.10;98.50;;;;;;5030415;28;20456;-57
2022/02/14 09:02:34;;;;;;;17.13;9.30;;;0.20;98.20;;;;;;5032332;28;20420;-57
2022/02/14 09:05:01;;;;;;;14.10;9.07;;;0.30;97.70;;;;;;5028870;28;20497;-57
2022/02/14 09:07:26;;;;;;;15.00;9.43;;;0.40;96.30;;;;;;5032953;28;20451;-58
2022/02/14 09:09:52;;;;;;;14.60;9.00;;;0.60;95.00;;;;;;5012708;28;20503;-57
2022/02/14 09:12:19;;;;;;;22.70;9.70;;;0.70;94.70;;;;;;5018748;28;20209;-57
2022/02/14 09:14:45;;;;;;;21.40;10.17;;;0.80;94.70;;;;;;5021936;28;20429;-57
2022/02/14 09:17:11;;;;;;;12.37;8.50;;;0.90;94.60;;;;;;5029083;28;20881;-58
2022/02/14 09:19:37;;;;;;;18.43;9.17;;;1.10;95.40;;;;;;5025191;28;20448;-58
2022/02/14 09:22:03;;;;;;;21.37;9.80;;;1.20;95.30;;;;;;5027276;28;20187;-57
2022/02/14 09:24:30;;;;;;;16.33;9.10;;;1.40;94.10;;;;;;5017204;28;20178;-57
2022/02/14 09:26:56;;;;;;;14.50;8.93;;;1.50;93.40;;;;;;5014222;28;20416;-57
2022/02/14 09:29:23;;;;;;;16.90;10.63;;;1.70;92.30;;;;;;5025169;28;20803;-58
2022/02/14 09:31:49;;;;;;;14.67;9.43;;;1.90;91.30;;;;;;5020827;28;20555;-57
2022/02/14 09:34:15;;;;;;;16.37;9.07;;;2.10;88.90;;;;;;5015385;28;20429;-58
2022/02/14 09:36:40;;;;;;;18.17;9.10;;;2.30;87.40;;;;;;5020189;28;20442;-58
2022/02/14 09:39:08;;;;;;;12.00;8.10;;;2.50;84.80;;;;;;5017382;28;20179;-58
2022/02/14 09:41:36;;;;;;;11.57;6.63;;;2.70;82.60;;;;;;5022698;28;20257;-58
2022/02/14 09:44:03;;;;;;;11.23;6.60;;;2.90;79.80;;;;;;5020853;28;20470;-59
2022/02/14 09:46:30;;;;;;;14.80;6.80;;;3.10;73.40;;;;;;5024308;28;20873;-58
2022/02/14 09:49:02;;;;;;;12.60;7.23;;;3.20;69.80;;;;;;5020880;28;20456;-59
2022/02/14 09:51:29;;;;;;;21.83;7.60;;;3.20;67.40;;;;;;5025288;28;20456;-58
2022/02/14 09:53:55;;;;;;;10.60;6.73;;;3.20;64.70;;;;;;5025218;28;20435;-57
2022/02/14 09:56:22;;;;;;;18.93;6.93;;;3.30;64.90;;;;;;5031390;28;20473;-58
2022/02/14 09:58:48;;;;;;;12.63;7.00;;;3.40;65.60;;;;;;5026019;28;20265;-59
2022/02/14 10:01:15;;;;;;;13.70;7.63;;;3.60;67.00;;;;;;5014060;28;20478;-58
2022/02/14 10:03:53;;;;;;;10.40;7.00;;;3.80;67.10;;;;;;5021756;28;20439;-57
2022/02/14 10:06:34;;;;;;;15.43;7.00;;;3.90;65.80;;;;;;5023637;28;20430;-55
2022/02/14 10:09:27;;;;;;;9.93;6.27;;;4.10;66.00;;;;;;5011773;28;20428;-58
2022/02/14 10:12:06;;;;;;;9.70;6.10;;;4.50;67.20;;;;;;5011698;28;20851;-58
2022/02/14 10:14:33;;;;;;;13.00;7.47;;;4.90;65.40;;;;;;5025538;28;20456;-58
2022/02/14 10:17:01;;;;;;;23.40;7.07;;;5.20;63.00;;;;;;5044944;28;20465;-58
2022/02/14 10:19:29;;;;;;;11.10;5.67;;;5.40;59.10;;;;;;5030143;28;20449;-56
2022/02/14 10:21:56;;;;;;;9.47;6.10;;;5.70;57.50;;;;;;5018756;28;20447;-58
2022/02/14 10:24:22;;;;;;;13.27;6.50;;;6.00;56.60;;;;;;5011052;28;20782;-57
2022/02/14 10:26:50;;;;;;;7.03;3.60;;;6.30;57.40;;;;;;5019684;28;20427;-58
2022/02/14 10:29:27;;;;;;;6.23;3.40;;;6.50;50.10;;;;;;5024829;28;20414;-58
2022/02/14 10:31:58;;;;;;;9.53;3.57;;;6.60;47.30;;;;;;5027166;28;20453;-59
2022/02/14 10:34:43;;;;;;;5.00;3.00;;;6.70;46.00;;;;;;5012588;28;20486;-59
2022/02/14 10:37:13;;;;;;;5.90;3.30;;;6.60;44.50;;;;;;5013437;28;20442;-59
2022/02/14 10:39:40;;;;;;;8.03;3.60;;;6.60;44.30;;;;;;5031538;28;20808;-58
2022/02/14 10:42:11;;;;;;;7.80;3.73;;;6.50;43.70;;;;;;5019991;28;21011;-57
2022/02/14 10:47:30;;;;;;;5.03;3.20;;;6.50;43.10;;;;;;5018793;28;20542;-59
2022/02/14 10:50:12;;;;;;;8.50;3.30;;;6.50;43.10;;;;;;5029961;28;20436;-58
2022/02/14 10:52:45;;;;;;;10.17;3.83;;;6.50;43.90;;;;;;5014867;28;20427;-59
2022/02/14 10:55:16;;;;;;;6.10;3.20;;;6.40;44.20;;;;;;5032689;28;20496;-58
2022/02/14 10:57:44;;;;;;;6.90;3.63;;;6.40;44.30;;;;;;5029021;28;20430;-59
2022/02/14 11:00:18;;;;;;;4.73;2.90;;;6.40;44.70;;;;;;5024727;28;20940;-57
2022/02/14 11:02:47;;;;;;;7.80;3.57;;;6.40;45.10;;;;;;5019894;28;20438;-57
2022/02/14 11:05:14;;;;;;;5.53;2.60;;;6.50;45.40;;;;;;5012590;28;20811;-57
2022/02/14 11:07:40;;;;;;;4.37;2.60;;;6.50;45.60;;;;;;5018929;28;20447;-58
2022/02/14 11:10:14;;;;;;;4.03;3.10;;;6.70;45.60;;;;;;5023226;28;20490;-58
2022/02/14 11:12:48;;;;;;;2.70;2.23;;;6.90;46.30;;;;;;5020638;28;20435;-58
2022/02/14 11:15:14;;;;;;;5.83;3.53;;;7.20;45.90;;;;;;5015302;28;21120;-59
2022/02/14 11:18:06;;;;;;;4.17;2.73;;;7.50;45.80;;;;;;5019038;28;20500;-59
2022/02/14 11:20:32;;;;;;;4.40;2.83;;;7.70;45.20;;;;;;5024025;28;20535;-60
2022/02/14 11:23:00;;;;;;;11.60;3.17;;;7.80;46.20;;;;;;5021361;28;20481;-60
2022/02/14 11:26:01;;;;;;;2.93;2.57;;;7.90;46.40;;;;;;5017448;28;20993;-60
2022/02/14 11:28:39;;;;;;;7.40;2.73;;;8.20;46.50;;;;;;5020366;28;20462;-60
2022/02/14 11:31:14;;;;;;;5.10;2.80;;;8.50;46.80;;;;;;5010642;28;20474;-60
2022/02/14 11:33:50;;;;;;;5.77;2.57;;;8.60;47.20;;;;;;5013920;28;20453;-60
2022/02/14 11:36:16;;;;;;;8.47;3.40;;;8.60;47.50;;;;;;5016536;28;20473;-61
2022/02/14 11:38:50;;;;;;;4.20;3.20;;;8.50;48.20;;;;;;5016439;28;20428;-60
2022/02/14 11:41:35;;;;;;;7.13;2.70;;;8.30;49.00;;;;;;5020757;28;20342;-60
2022/02/14 11:46:53;;;;;;;7.77;3.00;;;7.70;51.20;;;;;;5020355;28;20422;-59
2022/02/14 11:49:39;;;;;;;4.23;2.77;;;7.50;53.00;;;;;;5017265;28;20515;-60
2022/02/14 11:52:07;;;;;;;11.17;3.60;;;7.40;54.00;;;;;;5020481;28;20871;-60
2022/02/14 11:54:36;;;;;;;4.23;2.80;;;7.30;54.90;;;;;;5013171;28;20568;-60
2022/02/14 11:57:20;;;;;;;5.03;3.33;;;7.10;55.50;;;;;;5016216;28;20428;-60
2022/02/14 11:59:46;;;;;;;7.10;2.97;;;7.00;56.90;;;;;;5032578;28;20462;-60
2022/02/14 12:02:13;;;;;;;4.77;2.40;;;6.80;57.70;;;;;;5018409;28;20527;-60
2022/02/14 12:04:48;;;;;;;7.13;3.83;;;6.70;58.40;;;;;;5015456;28;20172;-60
2022/02/14 12:07:17;;;;;;;4.90;2.93;;;6.60;59.50;;;;;;5013647;28;20615;-60
2022/02/14 12:10:00;;;;;;;4.97;3.63;;;6.50;60.80;;;;;;5008998;28;20441;-61
2022/02/14 12:12:56;;;;;;;13.40;4.77;;;6.40;63.20;;;;;;5015649;28;20455;-61
2022/02/14 12:20:52;;;;;;;14.83;5.23;;;6.40;72.70;;;;;;5017457;28;20480;-60
2022/02/14 12:23:41;;;;;;;7.40;3.83;;;6.40;80.60;;;;;;5008302;28;20477;-60
2022/02/14 12:26:08;;;;;;;7.00;3.53;;;6.40;86.30;;;;;;5013279;28;20525;-59
2022/02/14 12:28:36;;;;;;;5.60;3.73;;;6.40;90.50;;;;;;5013067;28;20419;-60
2022/02/14 12:31:05;;;;;;;7.97;3.53;;;6.40;92.10;;;;;;5014169;28;20586;-59
2022/02/14 12:33:31;;;;;;;6.00;3.80;;;6.50;93.30;;;;;;5021027;28;20426;-60
2022/02/14 12:35:59;;;;;;;5.70;3.13;;;6.50;93.90;;;;;;5007212;28;20445;-60
2022/02/14 12:38:31;;;;;;;4.93;2.80;;;6.60;94.20;;;;;;5011486;28;20736;-58
2022/02/14 12:41:15;;;;;;;10.47;4.07;;;6.60;92.50;;;;;;5010513;28;20478;-60
2022/02/14 12:43:49;;;;;;;6.33;3.00;;;6.60;91.40;;;;;;5006761;28;20426;-60
2022/02/14 12:46:23;;;;;;;3.57;3.23;;;6.60;91.50;;;;;;5008082;28;20532;-59
2022/02/14 12:48:57;;;;;;;7.93;3.47;;;6.50;90.60;;;;;;5018594;28;20437;-61
2022/02/14 12:51:28;;;;;;;5.90;2.90;;;6.50;90.60;;;;;;5011112;28;20484;-60